EZE weather

Ministro Pistarini International Airport
Buenos Aires, Buenos Aires Province, Argentina

Public forecast

Using degrees Celsius for public forecast. Weather courtesy of forecast.io.

Current aviation weather report (METAR) for Ministro Pistarini International Airport

Retrieved 2019/11/12 17:00 UTC (47 minutes ago):

SAEZ 121700Z 05006KT 9999 FEW043 SCT100 28/17 Q1012 NOSIG

Aviation forecast (TAF) for Ministro Pistarini International Airport

Retrieved 2019/11/12 12:00 UTC (6 hours ago):

TAF SAEZ 121100Z 1212/1312 05015KT 9999 FEW018 TX27/1218Z TN19/1310Z BECMG 1213/1215 CAVOK BECMG 1301/1303 09005KT 9999 BKN015 PROB30 1305/1311 VRB03KT 5000 BR OVC010